sensor_id;sensor_type;location;lat;lon;timestamp;pressure;altitude;pressure_sealevel;temperature;humidity
18795;BME280;29610;49.022;12.114;2023-05-12T00:00:54;97484.03;;;12.29;100.00
18795;BME280;29610;49.022;12.114;2023-05-12T00:03:44;97495.53;;;12.02;100.00
18795;BME280;29610;49.022;12.114;2023-05-12T00:06:33;97484.44;;;12.07;100.00
18795;BME280;29610;49.022;12.114;2023-05-12T00:09:23;97491.47;;;12.08;100.00
18795;BME280;29610;49.022;12.114;2023-05-12T00:12:12;97487.56;;;11.97;100.00
18795;BME280;29610;49.022;12.114;2023-05-12T00:15:02;97484.56;;;12.11;100.00
18795;BME280;29610;49.022;12.114;2023-05-12T00:17:51;97479.56;;;12.13;100.00
18795;BME280;29610;49.022;12.114;2023-05-12T00:20:40;97476.06;;;12.12;100.00
18795;BME280;29610;49.022;12.114;2023-05-12T00:23:29;97472.44;;;12.20;100.00
18795;BME280;29610;49.022;12.114;2023-05-12T00:26:19;97468.03;;;12.28;100.00
18795;BME280;29610;49.022;12.114;2023-05-12T00:29:08;97466.88;;;12.29;100.00
18795;BME280;29610;49.022;12.114;2023-05-12T00:31:57;97468.50;;;12.42;100.00
18795;BME280;29610;49.022;12.114;2023-05-12T00:34:46;97466.13;;;12.28;100.00
18795;BME280;29610;49.022;12.114;2023-05-12T00:37:34;97468.28;;;12.47;100.00
18795;BME280;29610;49.022;12.114;2023-05-12T00:40:23;97461.03;;;12.51;100.00
18795;BME280;29610;49.022;12.114;2023-05-12T00:43:13;97465.69;;;12.50;100.00
18795;BME280;29610;49.022;12.114;2023-05-12T00:46:04;97464.44;;;12.60;100.00
18795;BME280;29610;49.022;12.114;2023-05-12T00:48:53;97470.34;;;12.50;100.00
18795;BME280;29610;49.022;12.114;2023-05-12T00:51:43;97461.47;;;12.53;100.00
18795;BME280;29610;49.022;12.114;2023-05-12T00:54:31;97462.84;;;12.47;100.00
18795;BME280;29610;49.022;12.114;2023-05-12T00:57:21;97464.91;;;12.62;100.00
18795;BME280;29610;49.022;12.114;2023-05-12T01:00:16;97463.16;;;12.33;100.00
18795;BME280;29610;49.022;12.114;2023-05-12T01:03:07;97465.66;;;12.26;100.00
18795;BME280;29610;49.022;12.114;2023-05-12T01:06:10;97470.69;;;12.48;100.00
18795;BME280;29610;49.022;12.114;2023-05-12T01:09:00;97472.03;;;12.42;100.00
18795;BME280;29610;49.022;12.114;2023-05-12T01:11:49;97469.44;;;12.58;100.00
18795;BME280;29610;49.022;12.114;2023-05-12T01:14:39;97467.94;;;12.48;100.00
18795;BME280;29610;49.022;12.114;2023-05-12T01:17:32;97471.81;;;12.59;100.00
18795;BME280;29610;49.022;12.114;2023-05-12T01:20:25;97471.38;;;12.69;100.00
18795;BME280;29610;49.022;12.114;2023-05-12T01:23:18;97467.97;;;12.60;100.00
18795;BME280;29610;49.022;12.114;2023-05-12T01:26:09;97468.41;;;12.62;100.00
18795;BME280;29610;49.022;12.114;2023-05-12T01:29:00;97469.69;;;12.65;100.00
18795;BME280;29610;49.022;12.114;2023-05-12T01:31:50;97463.22;;;12.69;100.00
18795;BME280;29610;49.022;12.114;2023-05-12T01:34:39;97464.13;;;12.61;100.00
18795;BME280;29610;49.022;12.114;2023-05-12T01:37:30;97461.50;;;12.65;100.00
18795;BME280;29610;49.022;12.114;2023-05-12T01:40:21;97457.41;;;12.71;100.00
18795;BME280;29610;49.022;12.114;2023-05-12T01:43:12;97466.25;;;12.44;100.00
18795;BME280;29610;49.022;12.114;2023-05-12T01:46:00;97467.41;;;12.43;100.00
18795;BME280;29610;49.022;12.114;2023-05-12T01:48:50;97462.03;;;12.34;100.00
18795;BME280;29610;49.022;12.114;2023-05-12T01:51:38;97459.44;;;12.38;100.00
18795;BME280;29610;49.022;12.114;2023-05-12T01:54:28;97470.28;;;12.26;100.00
18795;BME280;29610;49.022;12.114;2023-05-12T01:57:17;97466.53;;;12.30;100.00
18795;BME280;29610;49.022;12.114;2023-05-12T02:00:10;97465.69;;;12.50;100.00
18795;BME280;29610;49.022;12.114;2023-05-12T02:03:02;97470.47;;;12.41;100.00
18795;BME280;29610;49.022;12.114;2023-05-12T02:05:51;97465.59;;;12.59;100.00
18795;BME280;29610;49.022;12.114;2023-05-12T02:08:40;97459.25;;;12.67;100.00
18795;BME280;29610;49.022;12.114;2023-05-12T02:11:29;97458.53;;;12.58;100.00
18795;BME280;29610;49.022;12.114;2023-05-12T02:14:18;97463.53;;;12.56;100.00
18795;BME280;29610;49.022;12.114;2023-05-12T02:17:08;97457.28;;;12.67;100.00
18795;BME280;29610;49.022;12.114;2023-05-12T02:19:57;97466.38;;;12.59;100.00
18795;BME280;29610;49.022;12.114;2023-05-12T02:22:46;97460.81;;;12.68;100.00
18795;BME280;29610;49.022;12.114;2023-05-12T02:25:35;97460.91;;;12.59;100.00
18795;BME280;29610;49.022;12.114;2023-05-12T02:28:23;97460.25;;;12.74;100.00
18795;BME280;29610;49.022;12.114;2023-05-12T02:31:12;97462.97;;;12.62;100.00
18795;BME280;29610;49.022;12.114;2023-05-12T02:34:03;97453.66;;;12.63;100.00
18795;BME280;29610;49.022;12.114;2023-05-12T02:36:53;97455.34;;;12.80;100.00
18795;BME280;29610;49.022;12.114;2023-05-12T02:39:42;97459.13;;;12.75;100.00
18795;BME280;29610;49.022;12.114;2023-05-12T02:42:31;97456.50;;;12.79;100.00
18795;BME280;29610;49.022;12.114;2023-05-12T02:45:22;97447.66;;;12.70;100.00
18795;BME280;29610;49.022;12.114;2023-05-12T02:48:10;97453.25;;;12.29;100.00
18795;BME280;29610;49.022;12.114;2023-05-12T02:51:01;97456.91;;;12.33;100.00
18795;BME280;29610;49.022;12.114;2023-05-12T02:53:49;97447.84;;;12.53;100.00
18795;BME280;29610;49.022;12.114;2023-05-12T02:56:38;97448.97;;;12.28;100.00
18795;BME280;29610;49.022;12.114;2023-05-12T02:59:27;97453.78;;;12.10;100.00
18795;BME280;29610;49.022;12.114;2023-05-12T03:02:17;97448.56;;;12.05;100.00
18795;BME280;29610;49.022;12.114;2023-05-12T03:05:07;97448.19;;;11.95;100.00
18795;BME280;29610;49.022;12.114;2023-05-12T03:08:00;97445.84;;;12.05;100.00
18795;BME280;29610;49.022;12.114;2023-05-12T03:10:49;97444.75;;;11.86;100.00
18795;BME280;29610;49.022;12.114;2023-05-12T03:13:40;97450.16;;;11.73;100.00
18795;BME280;29610;49.022;12.114;2023-05-12T03:16:28;97447.13;;;12.20;100.00
18795;BME280;29610;49.022;12.114;2023-05-12T03:19:17;97449.63;;;12.25;100.00
18795;BME280;29610;49.022;12.114;2023-05-12T03:22:06;97448.28;;;12.31;100.00
18795;BME280;29610;49.022;12.114;2023-05-12T03:24:56;97453.31;;;12.41;100.00
18795;BME280;29610;49.022;12.114;2023-05-12T03:27:45;97450.69;;;12.44;100.00
18795;BME280;29610;49.022;12.114;2023-05-12T03:30:34;97452.69;;;12.23;100.00
18795;BME280;29610;49.022;12.114;2023-05-12T03:33:23;97455.00;;;12.33;100.00
18795;BME280;29610;49.022;12.114;2023-05-12T03:36:12;97459.16;;;12.19;100.00
18795;BME280;29610;49.022;12.114;2023-05-12T03:39:01;97451.09;;;12.22;100.00
18795;BME280;29610;49.022;12.114;2023-05-12T03:41:53;97444.88;;;12.34;100.00
18795;BME280;29610;49.022;12.114;2023-05-12T03:44:42;97451.72;;;12.52;100.00
18795;BME280;29610;49.022;12.114;2023-05-12T03:47:31;97445.88;;;12.17;100.00
18795;BME280;29610;49.022;12.114;2023-05-12T03:50:21;97450.88;;;12.15;100.00
18795;BME280;29610;49.022;12.114;2023-05-12T03:53:10;97445.84;;;12.05;100.00
18795;BME280;29610;49.022;12.114;2023-05-12T03:56:03;97450.28;;;12.10;100.00
18795;BME280;29610;49.022;12.114;2023-05-12T03:58:54;97455.63;;;12.18;100.00
18795;BME280;29610;49.022;12.114;2023-05-12T04:01:43;97447.94;;;12.20;100.00
18795;BME280;29610;49.022;12.114;2023-05-12T04:04:32;97455.16;;;12.16;100.00
18795;BME280;29610;49.022;12.114;2023-05-12T04:07:20;97443.50;;;12.16;100.00
18795;BME280;29610;49.022;12.114;2023-05-12T04:10:09;97441.81;;;12.23;100.00
18795;BME280;29610;49.022;12.114;2023-05-12T04:12:58;97451.34;;;12.29;100.00
18795;BME280;29610;49.022;12.114;2023-05-12T04:15:49;97441.94;;;12.27;100.00
18795;BME280;29610;49.022;12.114;2023-05-12T04:18:38;97454.53;;;12.43;100.00
18795;BME280;29610;49.022;12.114;2023-05-12T04:21:27;97453.97;;;12.38;100.00
18795;BME280;29610;49.022;12.114;2023-05-12T04:24:16;97444.88;;;12.34;100.00
18795;BME280;29610;49.022;12.114;2023-05-12T04:27:05;97457.00;;;12.24;100.00
18795;BME280;29610;49.022;12.114;2023-05-12T04:29:55;97457.34;;;12.23;100.00
18795;BME280;29610;49.022;12.114;2023-05-12T04:32:46;97457.69;;;12.21;100.00
18795;BME280;29610;49.022;12.114;2023-05-12T04:35:36;97462.31;;;12.21;100.00
18795;BME280;29610;49.022;12.114;2023-05-12T04:38:25;97465.09;;;12.00;100.00
18795;BME280;29610;49.022;12.114;2023-05-12T04:41:14;97470.66;;;11.92;100.00
18795;BME280;29610;49.022;12.114;2023-05-12T04:44:04;97469.00;;;11.78;100.00
18795;BME280;29610;49.022;12.114;2023-05-12T04:46:53;97478.72;;;12.00;100.00
18795;BME280;29610;49.022;12.114;2023-05-12T04:49:44;97474.00;;;12.09;100.00
18795;BME280;29610;49.022;12.114;2023-05-12T04:52:34;97475.59;;;12.10;100.00
18795;BME280;29610;49.022;12.114;2023-05-12T04:55:23;97468.63;;;12.01;100.00
18795;BME280;29610;49.022;12.114;2023-05-12T04:58:12;97480.88;;;11.95;100.00
18795;BME280;29610;49.022;12.114;2023-05-12T05:01:02;97481.72;;;12.07;100.00
18795;BME280;29610;49.022;12.114;2023-05-12T05:03:52;97472.88;;;12.10;100.00
18795;BME280;29610;49.022;12.114;2023-05-12T05:06:43;97487.69;;;12.01;100.00
18795;BME280;29610;49.022;12.114;2023-05-12T05:09:33;97486.78;;;11.97;100.00
18795;BME280;29610;49.022;12.114;2023-05-12T05:12:23;97485.69;;;12.10;100.00
18795;BME280;29610;49.022;12.114;2023-05-12T05:15:12;97491.06;;;12.18;100.00
18795;BME280;29610;49.022;12.114;2023-05-12T05:18:01;97488.72;;;12.41;100.00
18795;BME280;29610;49.022;12.114;2023-05-12T05:20:51;97493.03;;;12.42;100.00
18795;BME280;29610;49.022;12.114;2023-05-12T05:23:46;97491.94;;;12.22;100.00
18795;BME280;29610;49.022;12.114;2023-05-12T05:26:39;97493.41;;;12.08;100.00
18795;BME280;29610;49.022;12.114;2023-05-12T05:29:29;97500.94;;;12.23;100.00
18795;BME280;29610;49.022;12.114;2023-05-12T05:32:18;97498.25;;;12.02;100.00
18795;BME280;29610;49.022;12.114;2023-05-12T05:35:09;97512.13;;;12.09;100.00
18795;BME280;29610;49.022;12.114;2023-05-12T05:38:02;97515.19;;;12.08;100.00
18795;BME280;29610;49.022;12.114;2023-05-12T05:40:52;97510.03;;;12.27;100.00
18795;BME280;29610;49.022;12.114;2023-05-12T05:43:43;97513.00;;;12.34;100.00
18795;BME280;29610;49.022;12.114;2023-05-12T05:46:33;97509.31;;;12.50;100.00
18795;BME280;29610;49.022;12.114;2023-05-12T05:49:21;97510.31;;;12.58;100.00
18795;BME280;29610;49.022;12.114;2023-05-12T05:52:11;97514.53;;;12.55;100.00
18795;BME280;29610;49.022;12.114;2023-05-12T05:55:00;97512.75;;;12.83;100.00
18795;BME280;29610;49.022;12.114;2023-05-12T05:57:51;97521.16;;;12.78;100.00
18795;BME280;29610;49.022;12.114;2023-05-12T06:00:42;97517.34;;;13.15;100.00
18795;BME280;29610;49.022;12.114;2023-05-12T06:03:31;97516.84;;;13.38;100.00
18795;BME280;29610;49.022;12.114;2023-05-12T06:06:20;97521.50;;;13.37;100.00
18795;BME280;29610;49.022;12.114;2023-05-12T06:09:09;97519.94;;;13.36;100.00
18795;BME280;29610;49.022;12.114;2023-05-12T06:11:58;97528.91;;;13.24;100.00
18795;BME280;29610;49.022;12.114;2023-05-12T06:14:49;97532.16;;;13.66;100.00
18795;BME280;29610;49.022;12.114;2023-05-12T06:17:39;97531.81;;;13.68;100.00
18795;BME280;29610;49.022;12.114;2023-05-12T06:20:28;97525.97;;;13.42;100.00
18795;BME280;29610;49.022;12.114;2023-05-12T06:23:17;97539.50;;;13.14;100.00
18795;BME280;29610;49.022;12.114;2023-05-12T06:26:06;97538.72;;;13.26;100.00
18795;BME280;29610;49.022;12.114;2023-05-12T06:28:56;97540.41;;;13.18;100.00
18795;BME280;29610;49.022;12.114;2023-05-12T06:31:46;97540.63;;;13.37;100.00
18795;BME280;29610;49.022;12.114;2023-05-12T06:34:35;97549.81;;;12.96;100.00
18795;BME280;29610;49.022;12.114;2023-05-12T06:37:24;97546.50;;;12.91;100.00
18795;BME280;29610;49.022;12.114;2023-05-12T06:40:16;97552.56;;;13.08;100.00
18795;BME280;29610;49.022;12.114;2023-05-12T06:43:08;97549.06;;;13.08;100.00
18795;BME280;29610;49.022;12.114;2023-05-12T06:45:56;97549.84;;;13.33;100.00
18795;BME280;29610;49.022;12.114;2023-05-12T06:48:47;97550.97;;;13.07;100.00
18795;BME280;29610;49.022;12.114;2023-05-12T06:51:35;97548.34;;;13.47;100.00
18795;BME280;29610;49.022;12.114;2023-05-12T06:54:28;97554.72;;;13.39;100.00
18795;BME280;29610;49.022;12.114;2023-05-12T06:57:18;97557.00;;;13.49;100.00
18795;BME280;29610;49.022;12.114;2023-05-12T07:00:09;97562.59;;;13.92;100.00
18795;BME280;29610;49.022;12.114;2023-05-12T07:02:57;97561.63;;;14.24;100.00
18795;BME280;29610;49.022;12.114;2023-05-12T07:05:48;97556.81;;;13.94;100.00
18795;BME280;29610;49.022;12.114;2023-05-12T07:08:37;97553.97;;;13.90;100.00
18795;BME280;29610;49.022;12.114;2023-05-12T07:11:25;97561.56;;;14.36;100.00
18795;BME280;29610;49.022;12.114;2023-05-12T07:14:14;97557.00;;;14.40;100.00
18795;BME280;29610;49.022;12.114;2023-05-12T07:17:04;97558.47;;;14.38;100.00
18795;BME280;29610;49.022;12.114;2023-05-12T07:19:52;97559.72;;;14.40;100.00
18795;BME280;29610;49.022;12.114;2023-05-12T07:22:43;97554.97;;;14.81;100.00
18795;BME280;29610;49.022;12.114;2023-05-12T07:25:31;97560.59;;;14.88;100.00
18795;BME280;29610;49.022;12.114;2023-05-12T07:28:20;97557.75;;;14.68;100.00
18795;BME280;29610;49.022;12.114;2023-05-12T07:31:09;97560.56;;;14.56;100.00
18795;BME280;29610;49.022;12.114;2023-05-12T07:33:58;97564.66;;;14.35;100.00
18795;BME280;29610;49.022;12.114;2023-05-12T07:36:47;97558.47;;;14.81;100.00
18795;BME280;29610;49.022;12.114;2023-05-12T07:39:37;97555.75;;;14.81;100.00
18795;BME280;29610;49.022;12.114;2023-05-12T07:42:27;97563.16;;;14.37;100.00
18795;BME280;29610;49.022;12.114;2023-05-12T07:45:16;97566.06;;;15.03;100.00
18795;BME280;29610;49.022;12.114;2023-05-12T07:48:09;97566.00;;;15.15;100.00
18795;BME280;29610;49.022;12.114;2023-05-12T07:50:58;97572.97;;;14.97;100.00
18795;BME280;29610;49.022;12.114;2023-05-12T07:53:47;97566.38;;;14.98;100.00
18795;BME280;29610;49.022;12.114;2023-05-12T07:56:37;97565.38;;;15.22;100.00
18795;BME280;29610;49.022;12.114;2023-05-12T07:59:26;97572.34;;;15.35;100.00
18795;BME280;29610;49.022;12.114;2023-05-12T08:02:15;97569.19;;;15.48;100.00
18795;BME280;29610;49.022;12.114;2023-05-12T08:05:07;97564.34;;;16.11;100.00
18795;BME280;29610;49.022;12.114;2023-05-12T08:07:57;97560.56;;;16.76;100.00
18795;BME280;29610;49.022;12.114;2023-05-12T08:10:47;97559.97;;;16.86;100.00
18795;BME280;29610;49.022;12.114;2023-05-12T08:13:37;97568.53;;;16.43;100.00
18795;BME280;29610;49.022;12.114;2023-05-12T08:16:26;97557.97;;;16.26;100.00
18795;BME280;29610;49.022;12.114;2023-05-12T08:19:15;97558.19;;;16.75;100.00
18795;BME280;29610;49.022;12.114;2023-05-12T08:22:04;97564.03;;;17.18;100.00
18795;BME280;29610;49.022;12.114;2023-05-12T08:24:53;97564.66;;;17.08;100.00
18795;BME280;29610;49.022;12.114;2023-05-12T08:27:41;97565.63;;;17.42;100.00
18795;BME280;29610;49.022;12.114;2023-05-12T08:30:32;97563.44;;;17.77;100.00
18795;BME280;29610;49.022;12.114;2023-05-12T08:33:21;97567.09;;;16.91;100.00
18795;BME280;29610;49.022;12.114;2023-05-12T08:36:10;97574.97;;;16.51;100.00
18795;BME280;29610;49.022;12.114;2023-05-12T08:38:59;97573.88;;;16.97;100.00
18795;BME280;29610;49.022;12.114;2023-05-12T08:41:54;97569.59;;;17.22;100.00
18795;BME280;29610;49.022;12.114;2023-05-12T08:44:49;97572.69;;;16.98;100.00
18795;BME280;29610;49.022;12.114;2023-05-12T08:47:41;97574.22;;;16.73;100.00
18795;BME280;29610;49.022;12.114;2023-05-12T08:50:35;97570.50;;;16.84;100.00
18795;BME280;29610;49.022;12.114;2023-05-12T08:53:26;97576.84;;;17.11;100.00
18795;BME280;29610;49.022;12.114;2023-05-12T08:56:18;97577.03;;;16.19;100.00
18795;BME280;29610;49.022;12.114;2023-05-12T08:59:11;97583.53;;;16.30;100.00
18795;BME280;29610;49.022;12.114;2023-05-12T09:02:04;97585.97;;;15.97;100.00
18795;BME280;29610;49.022;12.114;2023-05-12T09:04:56;97576.91;;;16.50;100.00
18795;BME280;29610;49.022;12.114;2023-05-12T09:07:48;97584.75;;;16.71;100.00
18795;BME280;29610;49.022;12.114;2023-05-12T09:10:38;97588.25;;;16.90;100.00
18795;BME280;29610;49.022;12.114;2023-05-12T09:13:49;97589.41;;;16.48;100.00
18795;BME280;29610;49.022;12.114;2023-05-12T09:16:43;97586.31;;;16.49;100.00
18795;BME280;29610;49.022;12.114;2023-05-12T09:19:33;97583.28;;;16.96;100.00
18795;BME280;29610;49.022;12.114;2023-05-12T09:22:28;97578.50;;;17.15;100.00
18795;BME280;29610;49.022;12.114;2023-05-12T09:25:19;97579.91;;;17.51;100.00
18795;BME280;29610;49.022;12.114;2023-05-12T09:28:09;97584.72;;;17.58;100.00
18795;BME280;29610;49.022;12.114;2023-05-12T09:30:57;97588.31;;;17.88;100.00
18795;BME280;29610;49.022;12.114;2023-05-12T09:33:47;97578.38;;;18.06;100.00
18795;BME280;29610;49.022;12.114;2023-05-12T09:36:36;97583.41;;;18.00;100.00
18795;BME280;29610;49.022;12.114;2023-05-12T09:39:26;97583.31;;;17.93;100.00
18795;BME280;29610;49.022;12.114;2023-05-12T09:42:16;97584.38;;;17.85;100.00
18795;BME280;29610;49.022;12.114;2023-05-12T09:45:07;97585.53;;;17.84;100.00
18795;BME280;29610;49.022;12.114;2023-05-12T09:48:06;97586.31;;;17.85;100.00
18795;BME280;29610;49.022;12.114;2023-05-12T09:50:59;97583.53;;;17.32;100.00
18795;BME280;29610;49.022;12.114;2023-05-12T09:53:47;97584.06;;;17.41;100.00
18795;BME280;29610;49.022;12.114;2023-05-12T09:56:41;97591.50;;;17.41;100.00
18795;BME280;29610;49.022;12.114;2023-05-12T09:59:32;97590.84;;;17.02;100.00
18795;BME280;29610;49.022;12.114;2023-05-12T10:02:21;97583.44;;;16.84;100.00
18795;BME280;29610;49.022;12.114;2023-05-12T10:05:19;97589.50;;;16.93;100.00
18795;BME280;29610;49.022;12.114;2023-05-12T10:08:09;97583.72;;;16.79;100.00
18795;BME280;29610;49.022;12.114;2023-05-12T10:11:04;97588.72;;;16.16;100.00
18795;BME280;29610;49.022;12.114;2023-05-12T10:13:58;97592.63;;;15.80;100.00
18795;BME280;29610;49.022;12.114;2023-05-12T10:16:48;97593.75;;;15.60;100.00
18795;BME280;29610;49.022;12.114;2023-05-12T10:19:40;97598.16;;;15.49;100.00
18795;BME280;29610;49.022;12.114;2023-05-12T10:22:32;97592.66;;;15.18;100.00
18795;BME280;29610;49.022;12.114;2023-05-12T10:25:24;97593.47;;;15.34;100.00
18795;BME280;29610;49.022;12.114;2023-05-12T10:28:13;97595.59;;;15.56;100.00
18795;BME280;29610;49.022;12.114;2023-05-12T10:31:05;97585.97;;;15.97;100.00
18795;BME280;29610;49.022;12.114;2023-05-12T10:33:56;97587.47;;;16.13;100.00
18795;BME280;29610;49.022;12.114;2023-05-12T10:36:50;97593.25;;;16.08;100.00
18795;BME280;29610;49.022;12.114;2023-05-12T10:39:49;97597.22;;;16.11;100.00
18795;BME280;29610;49.022;12.114;2023-05-12T10:42:41;97600.63;;;16.24;100.00
18795;BME280;29610;49.022;12.114;2023-05-12T10:45:35;97586.63;;;17.08;100.00
18795;BME280;29610;49.022;12.114;2023-05-12T10:48:26;97592.25;;;16.93;100.00
18795;BME280;29610;49.022;12.114;2023-05-12T10:51:19;97593.38;;;16.92;100.00
18795;BME280;29610;49.022;12.114;2023-05-12T10:54:11;97597.72;;;17.15;100.00
18795;BME280;29610;49.022;12.114;2023-05-12T10:57:01;97581.88;;;18.03;100.00
18795;BME280;29610;49.022;12.114;2023-05-12T10:59:55;97588.91;;;18.00;100.00
18795;BME280;29610;49.022;12.114;2023-05-12T11:02:49;97580.03;;;17.35;100.00
18795;BME280;29610;49.022;12.114;2023-05-12T11:05:42;97585.53;;;17.35;100.00
18795;BME280;29610;49.022;12.114;2023-05-12T11:08:35;97589.06;;;16.91;100.00
18795;BME280;29610;49.022;12.114;2023-05-12T11:11:27;97601.22;;;16.52;100.00
18795;BME280;29610;49.022;12.114;2023-05-12T11:14:17;97602.16;;;15.86;100.00
18795;BME280;29610;49.022;12.114;2023-05-12T11:17:07;97609.72;;;14.68;100.00
18795;BME280;29610;49.022;12.114;2023-05-12T11:19:56;97623.91;;;14.31;100.00
18795;BME280;29610;49.022;12.114;2023-05-12T11:22:49;97622.91;;;13.99;100.00
18795;BME280;29610;49.022;12.114;2023-05-12T11:25:38;97627.59;;;13.99;100.00
18795;BME280;29610;49.022;12.114;2023-05-12T11:28:38;97625.41;;;14.16;100.00
18795;BME280;29610;49.022;12.114;2023-05-12T11:31:27;97624.84;;;14.50;100.00
18795;BME280;29610;49.022;12.114;2023-05-12T11:34:21;97625.19;;;14.49;100.00
18795;BME280;29610;49.022;12.114;2023-05-12T11:37:10;97624.31;;;14.73;100.00
18795;BME280;29610;49.022;12.114;2023-05-12T11:40:01;97627.78;;;15.01;100.00
18795;BME280;29610;49.022;12.114;2023-05-12T11:42:50;97627.63;;;15.09;100.00
18795;BME280;29610;49.022;12.114;2023-05-12T11:45:41;97620.91;;;15.22;100.00
18795;BME280;29610;49.022;12.114;2023-05-12T11:48:33;97621.81;;;15.11;100.00
18795;BME280;29610;49.022;12.114;2023-05-12T11:51:22;97618.19;;;15.38;100.00
18795;BME280;29610;49.022;12.114;2023-05-12T11:54:12;97622.72;;;15.61;100.00
18795;BME280;29610;49.022;12.114;2023-05-12T11:57:06;97630.38;;;15.09;100.00
18795;BME280;29610;49.022;12.114;2023-05-12T11:59:56;97629.66;;;15.12;100.00
18795;BME280;29610;49.022;12.114;2023-05-12T12:02:47;97630.44;;;14.97;100.00
18795;BME280;29610;49.022;12.114;2023-05-12T12:05:36;97633.50;;;14.80;100.00
18795;BME280;29610;49.022;12.114;2023-05-12T12:08:25;97636.22;;;14.80;100.00
18795;BME280;29610;49.022;12.114;2023-05-12T12:11:16;97632.41;;;14.69;100.00
18795;BME280;29610;49.022;12.114;2023-05-12T12:14:06;97633.59;;;14.56;100.00
18795;BME280;29610;49.022;12.114;2023-05-12T12:16:55;97642.63;;;15.00;100.00
18795;BME280;29610;49.022;12.114;2023-05-12T12:19:44;97634.88;;;15.17;100.00
18795;BME280;29610;49.022;12.114;2023-05-12T12:22:34;97639.06;;;15.58;100.00
18795;BME280;29610;49.022;12.114;2023-05-12T12:25:23;97636.19;;;15.85;100.00
18795;BME280;29610;49.022;12.114;2023-05-12T12:28:12;97638.72;;;15.94;100.00
18795;BME280;29610;49.022;12.114;2023-05-12T12:31:03;97638.69;;;15.28;100.00
18795;BME280;29610;49.022;12.114;2023-05-12T12:33:52;97638.50;;;15.37;100.00
18795;BME280;29610;49.022;12.114;2023-05-12T12:36:41;97648.94;;;15.62;100.00
18795;BME280;29610;49.022;12.114;2023-05-12T12:39:30;97640.25;;;15.29;100.00
18795;BME280;29610;49.022;12.114;2023-05-12T12:42:18;97642.75;;;15.19;100.00
18795;BME280;29610;49.022;12.114;2023-05-12T12:45:08;97638.19;;;15.54;100.00
18795;BME280;29610;49.022;12.114;2023-05-12T12:47:59;97643.78;;;15.76;100.00
18795;BME280;29610;49.022;12.114;2023-05-12T12:50:48;97643.88;;;15.80;100.00
18795;BME280;29610;49.022;12.114;2023-05-12T12:53:38;97647.13;;;15.51;100.00
18795;BME280;29610;49.022;12.114;2023-05-12T12:56:28;97650.97;;;15.65;100.00
18795;BME280;29610;49.022;12.114;2023-05-12T12:59:17;97650.16;;;15.80;100.00
18795;BME280;29610;49.022;12.114;2023-05-12T13:02:07;97652.41;;;15.59;100.00
18795;BME280;29610;49.022;12.114;2023-05-12T13:04:57;97648.50;;;16.10;100.00
18795;BME280;29610;49.022;12.114;2023-05-12T13:07:50;97652.63;;;16.55;100.00
18795;BME280;29610;49.022;12.114;2023-05-12T13:10:39;97650.03;;;16.62;100.00
18795;BME280;29610;49.022;12.114;2023-05-12T13:13:28;97650.63;;;16.17;100.00
18795;BME280;29610;49.022;12.114;2023-05-12T13:16:17;97649.63;;;16.25;100.00
18795;BME280;29610;49.022;12.114;2023-05-12T13:19:06;97654.75;;;16.27;100.00
18795;BME280;29610;49.022;12.114;2023-05-12T13:21:56;97651.03;;;16.00;100.00
18795;BME280;29610;49.022;12.114;2023-05-12T13:24:45;97645.50;;;16.16;100.00
18795;BME280;29610;49.022;12.114;2023-05-12T13:27:34;97657.59;;;15.80;100.00
18795;BME280;29610;49.022;12.114;2023-05-12T13:30:23;97657.34;;;15.69;100.00
18795;BME280;29610;49.022;12.114;2023-05-12T13:33:12;97653.94;;;15.91;100.00
18795;BME280;29610;49.022;12.114;2023-05-12T13:36:02;97656.03;;;15.63;100.00
18795;BME280;29610;49.022;12.114;2023-05-12T13:38:52;97649.94;;;15.70;100.00
18795;BME280;29610;49.022;12.114;2023-05-12T13:41:41;97651.59;;;15.59;100.00
18795;BME280;29610;49.022;12.114;2023-05-12T13:44:30;97650.16;;;15.34;100.00
18795;BME280;29610;49.022;12.114;2023-05-12T13:47:18;97656.78;;;15.33;100.00
18795;BME280;29610;49.022;12.114;2023-05-12T13:50:08;97653.50;;;15.12;100.00
18795;BME280;29610;49.022;12.114;2023-05-12T13:52:57;97650.84;;;15.31;100.00
18795;BME280;29610;49.022;12.114;2023-05-12T13:55:48;97657.66;;;15.21;100.00
18795;BME280;29610;49.022;12.114;2023-05-12T13:58:37;97657.41;;;14.83;100.00
18795;BME280;29610;49.022;12.114;2023-05-12T14:01:26;97657.34;;;14.95;100.00
18795;BME280;29610;49.022;12.114;2023-05-12T14:04:16;97657.59;;;14.35;100.00
18795;BME280;29610;49.022;12.114;2023-05-12T14:07:05;97662.50;;;14.69;100.00
18795;BME280;29610;49.022;12.114;2023-05-12T14:09:55;97662.31;;;15.05;100.00
18795;BME280;29610;49.022;12.114;2023-05-12T14:12:48;97656.47;;;14.63;100.00
18795;BME280;29610;49.022;12.114;2023-05-12T14:15:37;97658.44;;;14.63;100.00
18795;BME280;29610;49.022;12.114;2023-05-12T14:18:36;97666.00;;;14.42;100.00
18795;BME280;29610;49.022;12.114;2023-05-12T14:21:27;97662.25;;;14.34;100.00
18795;BME280;29610;49.022;12.114;2023-05-12T14:24:19;97659.63;;;14.38;100.00
18795;BME280;29610;49.022;12.114;2023-05-12T14:27:07;97657.41;;;14.28;100.00
18795;BME280;29610;49.022;12.114;2023-05-12T14:29:58;97656.91;;;14.65;100.00
18795;BME280;29610;49.022;12.114;2023-05-12T14:32:48;97658.22;;;14.56;100.00
18795;BME280;29610;49.022;12.114;2023-05-12T14:35:40;97666.13;;;14.73;100.00
18795;BME280;29610;49.022;12.114;2023-05-12T14:38:34;97662.78;;;14.52;100.00